createdAt,value
2018-07-05T00:00:58.803Z,3.57
2018-07-05T00:03:37.317Z,3.63
2018-07-05T00:06:15.840Z,3.13
2018-07-05T00:08:54.484Z,3.97
2018-07-05T00:11:33.065Z,3.23
2018-07-05T00:14:11.900Z,3.40
2018-07-05T00:16:50.451Z,3.70
2018-07-05T00:19:28.811Z,3.53
2018-07-05T00:22:07.440Z,3.07
2018-07-05T00:24:46.068Z,3.30
2018-07-05T00:27:24.652Z,3.53
2018-07-05T00:30:03.215Z,3.50
2018-07-05T00:32:41.736Z,3.23
2018-07-05T00:35:20.242Z,3.63
2018-07-05T00:37:58.753Z,3.50
2018-07-05T00:40:37.257Z,3.03
2018-07-05T00:43:15.889Z,3.40
2018-07-05T00:45:54.355Z,2.90
2018-07-05T00:48:32.721Z,2.97
2018-07-05T00:51:11.279Z,3.13
2018-07-05T00:53:50.099Z,3.00
2018-07-05T00:56:28.480Z,2.80
2018-07-05T00:59:07.009Z,3.10
2018-07-05T01:01:45.519Z,2.40
2018-07-05T01:04:23.956Z,3.23
2018-07-05T01:07:02.472Z,3.00
2018-07-05T01:09:40.996Z,3.10
2018-07-05T01:12:19.391Z,2.97
2018-07-05T01:14:57.795Z,3.00
2018-07-05T01:17:36.320Z,2.77
2018-07-05T01:20:14.736Z,2.90
2018-07-05T01:22:53.297Z,2.83
2018-07-05T01:25:31.765Z,2.47
2018-07-05T01:28:10.177Z,2.60
2018-07-05T01:30:48.696Z,2.40
2018-07-05T01:33:27.226Z,3.10
2018-07-05T01:36:05.658Z,3.07
2018-07-05T01:38:44.156Z,2.73
2018-07-05T01:41:22.753Z,2.77
2018-07-05T01:44:01.190Z,2.60
2018-07-05T01:46:39.728Z,2.80
2018-07-05T01:49:18.132Z,2.53
2018-07-05T01:51:56.628Z,2.63
2018-07-05T01:54:35.032Z,2.80
2018-07-05T01:57:13.587Z,2.60
2018-07-05T01:59:51.969Z,2.83
2018-07-05T02:02:30.404Z,2.83
2018-07-05T02:05:08.894Z,3.40
2018-07-05T02:07:47.341Z,3.07
2018-07-05T02:10:25.833Z,3.70
2018-07-05T02:13:04.285Z,3.63
2018-07-05T02:15:42.851Z,3.57
2018-07-05T02:18:21.324Z,4.07
2018-07-05T02:20:59.688Z,3.50
2018-07-05T02:23:38.112Z,3.93
2018-07-05T02:26:16.625Z,4.63
2018-07-05T02:28:55.080Z,4.20
2018-07-05T02:31:33.678Z,3.53
2018-07-05T02:34:12.229Z,4.10
2018-07-05T02:36:50.809Z,4.03
2018-07-05T02:39:35.105Z,3.47
2018-07-05T02:42:13.979Z,3.63
2018-07-05T02:44:53.394Z,3.83
2018-07-05T02:47:31.927Z,3.40
2018-07-05T02:50:10.490Z,3.90
2018-07-05T02:52:49.020Z,3.70
2018-07-05T02:55:27.548Z,3.40
2018-07-05T02:58:06.292Z,3.50
2018-07-05T03:00:45.612Z,3.57
2018-07-05T03:03:25.597Z,3.40
2018-07-05T03:06:04.501Z,3.37
2018-07-05T03:08:43.153Z,3.30
2018-07-05T03:11:21.739Z,3.03
2018-07-05T03:14:00.025Z,3.50
2018-07-05T03:16:38.836Z,3.23
2018-07-05T03:19:17.627Z,3.53
2018-07-05T03:21:56.224Z,3.70
2018-07-05T03:24:34.747Z,3.20
2018-07-05T03:27:13.355Z,3.40
2018-07-05T03:29:51.968Z,3.30
2018-07-05T03:32:30.603Z,3.20
2018-07-05T03:35:09.010Z,3.60
2018-07-05T03:37:47.388Z,3.30
2018-07-05T03:40:25.801Z,3.20
2018-07-05T03:43:04.324Z,3.30
2018-07-05T03:45:42.844Z,3.43
2018-07-05T03:48:21.346Z,3.60
2018-07-05T03:50:59.802Z,3.90
2018-07-05T03:53:38.344Z,3.90
2018-07-05T03:56:16.841Z,3.50
2018-07-05T03:58:55.368Z,3.77
2018-07-05T04:01:33.864Z,3.60
2018-07-05T04:04:12.200Z,3.77
2018-07-05T04:06:50.603Z,3.77
2018-07-05T04:09:29.118Z,3.97
2018-07-05T04:12:07.481Z,3.23
2018-07-05T04:14:45.903Z,3.40
2018-07-05T04:17:24.444Z,3.33
2018-07-05T04:20:02.829Z,3.37
2018-07-05T04:22:41.220Z,3.80
2018-07-05T04:25:19.824Z,3.57
2018-07-05T04:27:58.261Z,3.80
2018-07-05T04:30:37.100Z,4.00
2018-07-05T04:33:15.693Z,3.80
2018-07-05T04:35:54.225Z,4.10
2018-07-05T04:38:32.832Z,4.53
2018-07-05T04:41:11.333Z,3.87
2018-07-05T04:43:49.890Z,4.10
2018-07-05T04:46:28.369Z,4.20
2018-07-05T04:49:06.877Z,4.30
2018-07-05T04:51:45.397Z,4.60
2018-07-05T04:54:23.933Z,4.30
2018-07-05T04:57:02.490Z,4.73
2018-07-05T04:59:40.968Z,4.20
2018-07-05T05:02:19.532Z,4.10
2018-07-05T05:04:58.028Z,4.40
2018-07-05T05:07:36.595Z,4.23
2018-07-05T05:10:15.140Z,4.30
2018-07-05T05:12:53.648Z,4.03
2018-07-05T05:15:32.186Z,4.33
2018-07-05T05:18:10.684Z,3.83
2018-07-05T05:20:49.493Z,4.57
2018-07-05T05:23:27.937Z,4.20
2018-07-05T05:26:06.500Z,4.63
2018-07-05T05:28:44.973Z,4.20
2018-07-05T05:31:23.597Z,4.27
2018-07-05T05:34:02.213Z,3.57
2018-07-05T05:36:40.732Z,4.10
2018-07-05T05:39:19.674Z,4.20
2018-07-05T05:41:58.105Z,4.17
2018-07-05T05:44:36.584Z,3.83
2018-07-05T05:47:15.097Z,4.47
2018-07-05T05:49:53.625Z,5.23
2018-07-05T05:52:32.193Z,4.03
2018-07-05T05:55:10.657Z,4.07
2018-07-05T05:57:49.093Z,4.10
2018-07-05T06:00:27.623Z,3.87
2018-07-05T06:03:06.217Z,4.00
2018-07-05T06:05:44.861Z,3.80
2018-07-05T06:08:23.901Z,3.47
2018-07-05T06:11:02.470Z,3.70
2018-07-05T06:13:40.868Z,3.80
2018-07-05T06:16:19.493Z,3.77
2018-07-05T06:18:57.973Z,4.20
2018-07-05T06:21:36.332Z,4.00
2018-07-05T06:24:14.773Z,4.07
2018-07-05T06:26:53.285Z,5.30
2018-07-05T06:29:31.904Z,4.30
2018-07-05T06:32:10.288Z,4.40
2018-07-05T06:34:48.721Z,4.13
2018-07-05T06:37:27.125Z,3.90
2018-07-05T06:40:05.462Z,3.23
2018-07-05T06:42:44.039Z,3.10
2018-07-05T06:45:22.589Z,3.07
2018-07-05T06:48:01.117Z,2.90
2018-07-05T06:50:39.646Z,2.97
2018-07-05T06:53:18.102Z,2.47
2018-07-05T06:55:56.560Z,2.80
2018-07-05T06:58:35.093Z,3.30
2018-07-05T07:01:13.596Z,3.07
2018-07-05T07:03:52.025Z,2.60
2018-07-05T07:06:30.525Z,3.13
2018-07-05T07:09:08.909Z,3.30
2018-07-05T07:11:47.412Z,3.07
2018-07-05T07:14:26.146Z,2.70
2018-07-05T07:17:04.580Z,3.23
2018-07-05T07:19:43.062Z,2.40
2018-07-05T07:22:21.440Z,2.90
2018-07-05T07:24:59.991Z,3.27
2018-07-05T07:27:38.497Z,3.17
2018-07-05T07:30:17.001Z,3.23
2018-07-05T07:32:55.456Z,3.30
2018-07-05T07:35:33.968Z,3.03
2018-07-05T07:38:12.325Z,3.40
2018-07-05T07:40:50.887Z,2.97
2018-07-05T07:43:16.921Z,3.00
2018-07-05T07:45:43.013Z,3.67
2018-07-05T07:48:08.992Z,3.60
2018-07-05T07:50:35.018Z,2.83
2018-07-05T07:53:01.073Z,2.67
2018-07-05T07:55:27.109Z,3.30
2018-07-05T07:57:53.132Z,3.87
2018-07-05T08:00:19.161Z,3.60
2018-07-05T08:02:45.205Z,4.20
2018-07-05T08:05:11.237Z,4.27
2018-07-05T08:07:37.269Z,4.53
2018-07-05T08:10:03.304Z,4.30
2018-07-05T08:12:29.324Z,4.53
2018-07-05T08:14:55.357Z,4.30
2018-07-05T08:17:21.541Z,4.50
2018-07-05T08:19:47.570Z,5.40
2018-07-05T08:22:13.674Z,4.73
2018-07-05T08:24:39.714Z,5.27
2018-07-05T08:27:05.892Z,5.20
2018-07-05T08:29:31.932Z,4.83
2018-07-05T08:31:57.961Z,4.23
2018-07-05T08:34:24.019Z,3.17
2018-07-05T08:36:50.076Z,2.70
2018-07-05T08:39:16.106Z,2.80
2018-07-05T08:41:42.137Z,2.70
2018-07-05T08:44:08.181Z,2.77
2018-07-05T08:46:34.208Z,2.53
2018-07-05T08:49:00.236Z,2.90
2018-07-05T08:51:26.265Z,2.80
2018-07-05T08:53:52.310Z,3.30
2018-07-05T08:56:18.353Z,3.83
2018-07-05T08:58:44.384Z,3.30
2018-07-05T09:01:10.414Z,3.30
2018-07-05T09:03:36.432Z,3.13
2018-07-05T09:06:02.465Z,2.93
2018-07-05T09:08:28.494Z,3.03
2018-07-05T09:10:54.520Z,2.63
2018-07-05T09:13:20.558Z,2.30
2018-07-05T09:15:46.605Z,2.83
2018-07-05T09:18:12.692Z,3.00
2018-07-05T09:20:38.672Z,3.47
2018-07-05T09:23:04.712Z,3.87
2018-07-05T09:25:30.757Z,3.50
2018-07-05T09:27:56.784Z,2.80
2018-07-05T09:30:22.825Z,2.47
2018-07-05T09:32:48.849Z,2.30
2018-07-05T09:35:14.881Z,2.20
2018-07-05T09:37:40.911Z,2.50
2018-07-05T09:40:06.965Z,2.23
2018-07-05T09:42:32.987Z,2.30
2018-07-05T09:44:59.013Z,2.70
2018-07-05T09:47:25.033Z,3.00
2018-07-05T09:49:51.061Z,2.70
2018-07-05T09:52:17.080Z,2.70
2018-07-05T09:54:43.125Z,3.10
2018-07-05T09:57:09.146Z,3.20
2018-07-05T09:59:35.178Z,3.20
2018-07-05T10:02:01.203Z,3.40
2018-07-05T10:04:27.234Z,3.00
2018-07-05T10:06:53.248Z,3.13
2018-07-05T10:09:19.280Z,2.80
2018-07-05T10:11:45.314Z,2.83
2018-07-05T10:14:11.334Z,3.00
2018-07-05T10:16:37.369Z,2.90
2018-07-05T10:19:03.394Z,2.80
2018-07-05T10:21:29.426Z,2.70
2018-07-05T10:23:55.445Z,2.77
2018-07-05T10:26:21.477Z,2.43
2018-07-05T10:28:59.953Z,2.60
2018-07-05T10:31:38.590Z,2.47
2018-07-05T10:34:04.604Z,2.10
2018-07-05T10:36:30.652Z,2.10
2018-07-05T10:38:56.670Z,2.40
2018-07-05T10:41:35.445Z,2.83
2018-07-05T10:44:14.103Z,2.90
2018-07-05T10:46:52.609Z,2.10
2018-07-05T10:49:31.150Z,1.87
2018-07-05T10:52:09.672Z,2.67
2018-07-05T10:54:48.233Z,2.50
2018-07-05T10:57:26.881Z,1.70
2018-07-05T11:00:05.372Z,1.40
2018-07-05T11:02:43.803Z,1.40
2018-07-05T11:05:22.349Z,1.50
2018-07-05T11:08:00.704Z,1.30
2018-07-05T11:10:39.188Z,1.40
2018-07-05T11:13:17.677Z,1.50
2018-07-05T11:15:56.428Z,1.67
2018-07-05T11:18:35.048Z,2.10
2018-07-05T11:21:13.445Z,2.40
2018-07-05T11:23:51.865Z,2.83
2018-07-05T11:26:30.554Z,3.70
2018-07-05T11:29:09.005Z,4.50
2018-07-05T11:31:47.733Z,4.17
2018-07-05T11:34:26.240Z,3.50
2018-07-05T11:37:04.821Z,3.80
2018-07-05T11:39:43.384Z,3.17
2018-07-05T11:42:22.145Z,3.67
2018-07-05T11:45:00.565Z,3.53
2018-07-05T11:47:39.141Z,4.00
2018-07-05T11:50:17.623Z,3.53
2018-07-05T11:52:56.057Z,3.23
2018-07-05T11:55:34.580Z,4.23
2018-07-05T11:58:13.085Z,3.43
2018-07-05T12:00:51.496Z,3.30
2018-07-05T12:03:30.006Z,2.70
2018-07-05T12:06:08.429Z,2.40
2018-07-05T12:08:46.992Z,2.53
2018-07-05T12:11:25.644Z,2.67
2018-07-05T12:14:04.028Z,2.70
2018-07-05T12:16:42.640Z,2.50
2018-07-05T12:19:21.149Z,2.23
2018-07-05T12:21:59.672Z,2.30
2018-07-05T12:24:38.200Z,2.23
2018-07-05T12:27:16.709Z,2.20
2018-07-05T12:29:55.160Z,2.80
2018-07-05T12:32:33.622Z,2.97
2018-07-05T12:35:12.165Z,2.80
2018-07-05T12:37:50.854Z,2.67
2018-07-05T12:40:29.369Z,2.50
2018-07-05T12:43:07.904Z,2.20
2018-07-05T12:45:46.441Z,2.10
2018-07-05T12:48:25.065Z,2.10
2018-07-05T12:51:03.586Z,2.80
2018-07-05T12:53:42.125Z,2.93
2018-07-05T12:56:20.596Z,2.70
2018-07-05T12:58:59.036Z,2.90
2018-07-05T13:01:37.563Z,2.43
2018-07-05T13:04:16.283Z,2.30
2018-07-05T13:06:54.611Z,2.13
2018-07-05T13:09:33.170Z,2.37
2018-07-05T13:12:11.584Z,2.20
2018-07-05T13:14:50.170Z,1.93
2018-07-05T13:17:28.585Z,2.00
2018-07-05T13:20:07.202Z,1.67
2018-07-05T13:22:45.698Z,1.60
2018-07-05T13:25:24.324Z,1.50
2018-07-05T13:28:02.997Z,1.40
2018-07-05T13:30:41.704Z,1.20
2018-07-05T13:33:20.399Z,1.30
2018-07-05T13:35:58.826Z,1.33
2018-07-05T13:38:37.492Z,1.23
2018-07-05T13:41:16.729Z,1.50
2018-07-05T13:43:56.082Z,1.07
2018-07-05T13:46:35.009Z,1.30
2018-07-05T13:49:14.225Z,1.30
2018-07-05T13:51:52.802Z,1.20
2018-07-05T13:54:32.841Z,0.90
2018-07-05T13:57:11.477Z,1.00
2018-07-05T13:59:50.034Z,1.10
2018-07-05T14:02:28.580Z,1.20
2018-07-05T14:05:07.332Z,1.30
2018-07-05T14:07:45.807Z,1.17
2018-07-05T14:10:24.432Z,1.33
2018-07-05T14:13:03.011Z,1.40
2018-07-05T14:15:41.697Z,1.40
2018-07-05T14:18:21.395Z,1.20
2018-07-05T14:21:01.318Z,1.43
2018-07-05T14:23:40.057Z,1.10
2018-07-05T14:26:18.524Z,1.40
2018-07-05T14:28:57.140Z,1.20
2018-07-05T14:31:35.825Z,1.40
2018-07-05T14:34:14.190Z,1.20
2018-07-05T14:36:52.802Z,1.10
2018-07-05T14:39:31.201Z,1.10
2018-07-05T14:42:09.764Z,1.30
2018-07-05T14:44:48.099Z,1.10
2018-07-05T14:47:26.488Z,1.40
2018-07-05T14:50:05.079Z,1.10
2018-07-05T14:52:43.632Z,1.10
2018-07-05T14:55:22.041Z,1.20
2018-07-05T14:58:00.569Z,1.37
2018-07-05T15:00:39.202Z,1.40
2018-07-05T15:03:17.704Z,1.30
2018-07-05T15:05:56.214Z,1.40
2018-07-05T15:08:34.682Z,1.20
2018-07-05T15:11:13.216Z,1.20
2018-07-05T15:13:51.747Z,1.20
2018-07-05T15:16:30.403Z,1.50
2018-07-05T15:19:09.101Z,1.30
2018-07-05T15:21:47.739Z,1.30
2018-07-05T15:24:26.167Z,1.30
2018-07-05T15:27:04.676Z,1.43
2018-07-05T15:29:43.238Z,1.30
2018-07-05T15:32:21.818Z,1.70
2018-07-05T15:35:00.384Z,1.60
2018-07-05T15:37:38.736Z,1.73
2018-07-05T15:40:17.152Z,1.47
2018-07-05T15:42:55.685Z,1.60
2018-07-05T15:45:34.188Z,1.63
2018-07-05T15:48:12.617Z,1.47
2018-07-05T15:50:51.171Z,1.60
2018-07-05T15:53:29.641Z,1.70
2018-07-05T15:56:08.241Z,1.70
2018-07-05T15:58:46.804Z,1.40
2018-07-05T16:01:25.259Z,1.50
2018-07-05T16:04:03.620Z,1.50
2018-07-05T16:06:42.139Z,1.70
2018-07-05T16:09:20.656Z,1.60
2018-07-05T16:11:59.075Z,1.70
2018-07-05T16:14:37.483Z,1.37
2018-07-05T16:17:15.949Z,1.50
2018-07-05T16:19:54.427Z,1.67
2018-07-05T16:22:32.816Z,1.57
2018-07-05T16:25:11.289Z,1.43
2018-07-05T16:27:49.784Z,1.40
2018-07-05T16:30:28.273Z,3.67
2018-07-05T16:33:06.957Z,1.50
2018-07-05T16:35:45.389Z,1.40
2018-07-05T16:38:23.877Z,1.70
2018-07-05T16:41:02.365Z,1.90
2018-07-05T16:43:40.884Z,1.60
2018-07-05T16:46:19.439Z,1.97
2018-07-05T16:48:57.920Z,1.67
2018-07-05T16:51:36.428Z,1.40
2018-07-05T16:54:15.045Z,1.57
2018-07-05T16:56:53.539Z,1.40
2018-07-05T16:59:32.083Z,1.60
2018-07-05T17:02:10.697Z,1.60
2018-07-05T17:04:49.174Z,1.87
2018-07-05T17:07:28.503Z,1.70
2018-07-05T17:10:07.088Z,1.53
2018-07-05T17:12:45.664Z,1.40
2018-07-05T17:15:24.254Z,1.50
2018-07-05T17:18:02.880Z,1.50
2018-07-05T17:20:41.407Z,1.43
2018-07-05T17:23:19.976Z,1.60
2018-07-05T17:25:58.486Z,1.60
2018-07-05T17:28:36.992Z,1.57
2018-07-05T17:31:15.429Z,1.67
2018-07-05T17:33:53.960Z,1.57
2018-07-05T17:36:32.585Z,1.80
2018-07-05T17:39:11.103Z,1.50
2018-07-05T17:41:49.620Z,2.00
2018-07-05T17:44:28.127Z,1.80
2018-07-05T17:47:06.653Z,1.67
2018-07-05T17:49:45.153Z,2.10
2018-07-05T17:52:23.596Z,1.60
2018-07-05T17:55:02.140Z,1.80
2018-07-05T17:57:40.897Z,1.90
2018-07-05T18:00:19.397Z,1.90
2018-07-05T18:02:57.980Z,1.80
2018-07-05T18:05:36.486Z,1.70
2018-07-05T18:08:15.429Z,2.20
2018-07-05T18:10:53.926Z,1.97
2018-07-05T18:13:32.346Z,2.10
2018-07-05T18:16:10.870Z,2.20
2018-07-05T18:18:49.367Z,2.50
2018-07-05T18:21:27.847Z,2.60
2018-07-05T18:24:06.317Z,2.50
2018-07-05T18:26:44.713Z,2.50
2018-07-05T18:29:23.021Z,2.50
2018-07-05T18:32:01.505Z,2.93
2018-07-05T18:34:40.399Z,2.83
2018-07-05T18:37:18.925Z,2.67
2018-07-05T18:39:57.424Z,3.20
2018-07-05T18:42:35.948Z,3.10
2018-07-05T18:45:14.260Z,2.90
2018-07-05T18:47:52.691Z,3.20
2018-07-05T18:50:31.244Z,2.37
2018-07-05T18:53:09.713Z,3.17
2018-07-05T18:55:48.256Z,3.00
2018-07-05T18:58:26.779Z,3.03
2018-07-05T19:01:05.249Z,2.97
2018-07-05T19:03:43.685Z,3.10
2018-07-05T19:06:22.204Z,3.67
2018-07-05T19:09:00.721Z,3.10
2018-07-05T19:11:39.963Z,3.50
2018-07-05T19:14:18.566Z,3.50
2018-07-05T19:16:56.948Z,3.37
2018-07-05T19:19:35.380Z,3.27
2018-07-05T19:22:13.905Z,3.23
2018-07-05T19:24:52.552Z,3.10
2018-07-05T19:27:31.072Z,3.47
2018-07-05T19:30:09.826Z,3.23
2018-07-05T19:32:48.457Z,3.73
2018-07-05T19:35:26.913Z,3.67
2018-07-05T19:38:05.448Z,3.77
2018-07-05T19:40:43.941Z,3.97
2018-07-05T19:43:23.177Z,3.57
2018-07-05T19:46:01.688Z,4.20
2018-07-05T19:48:40.136Z,3.93
2018-07-05T19:51:18.765Z,3.07
2018-07-05T19:53:57.319Z,2.87
2018-07-05T19:56:36.125Z,2.40
2018-07-05T19:59:14.730Z,2.27
2018-07-05T20:01:53.429Z,2.20
2018-07-05T20:04:31.959Z,2.10
2018-07-05T20:07:10.399Z,2.20
2018-07-05T20:09:48.898Z,2.40
2018-07-05T20:12:27.458Z,2.90
2018-07-05T20:15:05.955Z,2.60
2018-07-05T20:17:44.354Z,2.83
2018-07-05T20:20:23.061Z,3.20
2018-07-05T20:23:01.585Z,3.03
2018-07-05T20:25:40.090Z,2.97
2018-07-05T20:28:18.626Z,3.07
2018-07-05T20:30:57.257Z,3.50
2018-07-05T20:33:35.744Z,3.20
2018-07-05T20:36:14.285Z,2.97
2018-07-05T20:38:52.821Z,3.40
2018-07-05T20:41:31.326Z,4.43
2018-07-05T20:44:09.771Z,4.07
2018-07-05T20:46:48.406Z,4.87
2018-07-05T20:49:26.956Z,4.63
2018-07-05T20:52:05.641Z,3.57
2018-07-05T20:54:44.141Z,3.47
2018-07-05T20:57:22.513Z,3.70
2018-07-05T21:00:01.102Z,3.33
2018-07-05T21:02:39.655Z,3.40
2018-07-05T21:05:18.080Z,3.00
2018-07-05T21:07:56.499Z,2.57
2018-07-05T21:10:35.018Z,2.47
2018-07-05T21:13:13.541Z,3.00
2018-07-05T21:15:51.962Z,2.47
2018-07-05T21:18:30.461Z,2.70
2018-07-05T21:21:09.064Z,3.80
2018-07-05T21:23:47.589Z,3.70
2018-07-05T21:26:26.577Z,4.30
2018-07-05T21:29:05.130Z,4.67
2018-07-05T21:31:43.632Z,5.43
2018-07-05T21:34:22.196Z,4.80
2018-07-05T21:37:00.630Z,5.57
2018-07-05T21:39:39.374Z,5.33
2018-07-05T21:42:17.838Z,4.77
2018-07-05T21:44:56.281Z,5.20
2018-07-05T21:47:34.779Z,4.37
2018-07-05T21:50:14.534Z,4.80
2018-07-05T21:52:53.295Z,4.90
2018-07-05T21:55:31.871Z,4.43
2018-07-05T21:58:10.499Z,4.37
2018-07-05T22:00:49.125Z,4.00
2018-07-05T22:03:27.531Z,3.43
2018-07-05T22:06:06.169Z,3.60
2018-07-05T22:08:44.712Z,3.73
2018-07-05T22:11:23.036Z,4.03
2018-07-05T22:14:01.575Z,3.83
2018-07-05T22:16:45.874Z,3.80
2018-07-05T22:19:30.414Z,4.37
2018-07-05T22:22:14.816Z,3.80
2018-07-05T22:24:59.475Z,4.10
2018-07-05T22:27:44.011Z,3.97
2018-07-05T22:30:28.739Z,4.40
2018-07-05T22:33:07.421Z,4.47
2018-07-05T22:35:45.905Z,4.63
2018-07-05T22:38:24.459Z,4.70
2018-07-05T22:41:03.029Z,4.43
2018-07-05T22:43:41.573Z,4.30
2018-07-05T22:46:20.056Z,3.70
2018-07-05T22:48:58.671Z,4.60
2018-07-05T22:51:37.236Z,4.43
2018-07-05T22:54:15.820Z,5.20
2018-07-05T22:56:54.338Z,4.87
2018-07-05T22:59:32.880Z,4.40
2018-07-05T23:02:11.557Z,4.70
2018-07-05T23:04:50.021Z,4.63
2018-07-05T23:07:28.540Z,4.43
2018-07-05T23:10:07.067Z,3.77
2018-07-05T23:12:45.625Z,4.47
2018-07-05T23:15:24.191Z,4.07
2018-07-05T23:18:02.817Z,3.97
2018-07-05T23:20:41.410Z,4.10
2018-07-05T23:23:19.944Z,4.00
2018-07-05T23:25:58.653Z,3.90
2018-07-05T23:28:37.304Z,4.20
2018-07-05T23:31:15.793Z,4.27
2018-07-05T23:33:54.185Z,4.33
2018-07-05T23:36:32.732Z,4.57
2018-07-05T23:39:11.165Z,4.30
2018-07-05T23:41:49.804Z,4.47
2018-07-05T23:44:28.306Z,4.67
2018-07-05T23:47:06.825Z,4.80
2018-07-05T23:49:45.334Z,4.40
2018-07-05T23:52:23.901Z,4.03
2018-07-05T23:55:02.533Z,4.57
2018-07-05T23:57:41.344Z,5.00
